TVS8GL LKPR-LGKR
Flight info
| Callsign | TVS8GL |
|---|---|
| Flight time | 1h 40m |
| Altitude | 35000 |
| Route | VOZ4B/30 VOZ DCT PISAM DCT INSAX DCT BIGLO DCT RODON DCT LIMJA DCT PITAS |
| Aircraft | B738/M-SDE2E3FGHIRWXY/LB1 |
Departure
| Time | 2026-04-30 17:41 |
|---|---|
| Airport | Václav Havel Airport Prague (LKPR) |
Arrival
| Time | 2026-04-30 19:21 |
|---|---|
| Airport | Corfu Ioannis Kapodistrias International Airport (LGKR) |
| Time | Latitude | Longitude | Altitude | Speed | Heading |
|---|---|---|---|---|---|
| 2026-04-30 17:39 | 50.09556 | 14.27768 | 1209 ft | 23 kts | 134° |
| 2026-04-30 17:41 | 50.11016 | 14.24068 | 2234 ft | 172 kts | 310° |
| 2026-04-30 17:42 | 50.12546 | 14.20891 | 3414 ft | 202 kts | 311° |
| 2026-04-30 17:42 | 50.15436 | 14.14906 | 4529 ft | 254 kts | 310° |
| 2026-04-30 17:43 | 50.17442 | 14.10049 | 5943 ft | 275 kts | 285° |
| 2026-04-30 17:44 | 50.14707 | 14.02784 | 8270 ft | 290 kts | 197° |
| 2026-04-30 17:44 | 50.09251 | 14.05325 | 10446 ft | 293 kts | 133° |
| 2026-04-30 17:46 | 50.00962 | 14.17848 | 12817 ft | 358 kts | 133° |
| 2026-04-30 17:47 | 49.93589 | 14.28799 | 15524 ft | 373 kts | 130° |
| 2026-04-30 17:48 | 49.86154 | 14.40333 | 16416 ft | 381 kts | 131° |
| 2026-04-30 17:48 | 49.80262 | 14.48903 | 18277 ft | 389 kts | 131° |
| 2026-04-30 17:49 | 49.72171 | 14.60512 | 20449 ft | 403 kts | 131° |
| 2026-04-30 17:50 | 49.63830 | 14.72420 | 22478 ft | 417 kts | 130° |
| 2026-04-30 17:51 | 49.57361 | 14.81617 | 23931 ft | 426 kts | 130° |
| 2026-04-30 17:52 | 49.50230 | 14.90140 | 25206 ft | 445 kts | 145° |
| 2026-04-30 17:53 | 49.36302 | 15.01186 | 27110 ft | 457 kts | 144° |
| 2026-04-30 17:54 | 49.24939 | 15.10320 | 28486 ft | 465 kts | 144° |
| 2026-04-30 17:55 | 49.14373 | 15.18784 | 29684 ft | 471 kts | 143° |
| 2026-04-30 17:56 | 49.02654 | 15.28120 | 30883 ft | 476 kts | 143° |
| 2026-04-30 17:57 | 48.93893 | 15.35066 | 31884 ft | 474 kts | 144° |
| 2026-04-30 17:58 | 48.84612 | 15.40752 | 32781 ft | 489 kts | 159° |
| 2026-04-30 17:59 | 48.71414 | 15.45565 | 33962 ft | 488 kts | 160° |
| 2026-04-30 18:00 | 48.58244 | 15.50530 | 34970 ft | 487 kts | 160° |
| 2026-04-30 18:00 | 48.48374 | 15.54273 | 35597 ft | 487 kts | 160° |
| 2026-04-30 18:01 | 48.41843 | 15.56737 | 36067 ft | 486 kts | 161° |
| 2026-04-30 18:02 | 48.32009 | 15.60432 | 36700 ft | 485 kts | 161° |
| 2026-04-30 18:02 | 48.22194 | 15.64106 | 37263 ft | 484 kts | 162° |
| 2026-04-30 18:03 | 48.12403 | 15.67757 | 37401 ft | 484 kts | 162° |
| 2026-04-30 18:04 | 48.02617 | 15.71390 | 37405 ft | 481 kts | 162° |
| 2026-04-30 18:06 | 47.76759 | 15.80926 | 37406 ft | 479 kts | 163° |
| 2026-04-30 18:08 | 47.54071 | 15.89213 | 37390 ft | 480 kts | 163° |
| 2026-04-30 18:10 | 47.27985 | 15.98650 | 37376 ft | 484 kts | 164° |
| 2026-04-30 18:11 | 47.05273 | 16.06789 | 37358 ft | 475 kts | 164° |
| 2026-04-30 18:13 | 46.89788 | 16.15241 | 37373 ft | 481 kts | 154° |
| 2026-04-30 18:14 | 46.74388 | 16.24734 | 37353 ft | 476 kts | 155° |
| 2026-04-30 18:15 | 46.56114 | 16.35795 | 37368 ft | 473 kts | 156° |
| 2026-04-30 18:16 | 46.43868 | 16.43170 | 37371 ft | 482 kts | 156° |
| 2026-04-30 18:17 | 46.37666 | 16.46890 | 37348 ft | 481 kts | 156° |
| 2026-04-30 18:18 | 46.28465 | 16.52390 | 37357 ft | 475 kts | 156° |
| 2026-04-30 18:18 | 46.22368 | 16.56025 | 37359 ft | 473 kts | 156° |
| 2026-04-30 18:19 | 46.16280 | 16.59647 | 37362 ft | 473 kts | 157° |
| 2026-04-30 18:19 | 46.10191 | 16.63260 | 37365 ft | 474 kts | 157° |
| 2026-04-30 18:20 | 46.04079 | 16.66878 | 37363 ft | 476 kts | 157° |
| 2026-04-30 18:20 | 45.97915 | 16.70518 | 37369 ft | 482 kts | 157° |
| 2026-04-30 18:21 | 45.91686 | 16.74187 | 37365 ft | 485 kts | 157° |
| 2026-04-30 18:21 | 45.85431 | 16.77862 | 37362 ft | 487 kts | 157° |
| 2026-04-30 18:22 | 45.79145 | 16.81547 | 37347 ft | 488 kts | 158° |
| 2026-04-30 18:22 | 45.69768 | 16.87027 | 37342 ft | 486 kts | 158° |
| 2026-04-30 18:23 | 45.63515 | 16.90670 | 37344 ft | 484 kts | 158° |
| 2026-04-30 18:23 | 45.57307 | 16.94278 | 37334 ft | 479 kts | 158° |
| 2026-04-30 18:24 | 45.48071 | 16.99631 | 37337 ft | 476 kts | 158° |
| 2026-04-30 18:25 | 45.41947 | 17.03169 | 37347 ft | 475 kts | 158° |
| 2026-04-30 18:25 | 45.32739 | 17.08474 | 37343 ft | 476 kts | 158° |
| 2026-04-30 18:26 | 45.23506 | 17.13774 | 37353 ft | 483 kts | 158° |
| 2026-04-30 18:27 | 45.14099 | 17.19155 | 37348 ft | 488 kts | 159° |
| 2026-04-30 18:28 | 45.04630 | 17.24553 | 37340 ft | 488 kts | 159° |
| 2026-04-30 18:28 | 44.95297 | 17.29855 | 37343 ft | 478 kts | 159° |
| 2026-04-30 18:29 | 44.82954 | 17.36837 | 37347 ft | 478 kts | 159° |
| 2026-04-30 18:30 | 44.70595 | 17.43795 | 37343 ft | 479 kts | 159° |
| 2026-04-30 18:31 | 44.61322 | 17.48995 | 37331 ft | 481 kts | 159° |
| 2026-04-30 18:32 | 44.51969 | 17.54222 | 37338 ft | 483 kts | 160° |
| 2026-04-30 18:33 | 44.42612 | 17.59433 | 37333 ft | 485 kts | 160° |
| 2026-04-30 18:33 | 44.33201 | 17.64656 | 37337 ft | 486 kts | 160° |
| 2026-04-30 18:34 | 44.23758 | 17.69879 | 37322 ft | 486 kts | 160° |
| 2026-04-30 18:35 | 44.17471 | 17.73346 | 37336 ft | 485 kts | 160° |
| 2026-04-30 18:35 | 44.11218 | 17.76787 | 37320 ft | 485 kts | 160° |
| 2026-04-30 18:36 | 44.01800 | 17.81955 | 37314 ft | 484 kts | 161° |
| 2026-04-30 18:37 | 43.92424 | 17.87082 | 37325 ft | 481 kts | 161° |
| 2026-04-30 18:37 | 43.86203 | 17.90473 | 37309 ft | 480 kts | 161° |
| 2026-04-30 18:38 | 43.80037 | 17.93828 | 37307 ft | 479 kts | 161° |
| 2026-04-30 18:38 | 43.73826 | 17.97199 | 37294 ft | 479 kts | 161° |
| 2026-04-30 18:39 | 43.67618 | 18.00560 | 37305 ft | 479 kts | 161° |
| 2026-04-30 18:39 | 43.61379 | 18.03931 | 37299 ft | 483 kts | 161° |
| 2026-04-30 18:40 | 43.55092 | 18.07320 | 37271 ft | 487 kts | 161° |
| 2026-04-30 18:40 | 43.48752 | 18.10730 | 37255 ft | 489 kts | 162° |
| 2026-04-30 18:41 | 43.42458 | 18.14111 | 37237 ft | 485 kts | 162° |
| 2026-04-30 18:41 | 43.36199 | 18.17465 | 37229 ft | 481 kts | 162° |
| 2026-04-30 18:42 | 43.31026 | 18.20230 | 37244 ft | 479 kts | 162° |
| 2026-04-30 18:42 | 43.21615 | 18.25242 | 37245 ft | 488 kts | 162° |
| 2026-04-30 18:45 | 42.87168 | 18.43468 | 37223 ft | 480 kts | 163° |
| 2026-04-30 18:46 | 42.80970 | 18.46723 | 37197 ft | 481 kts | 163° |
| 2026-04-30 18:46 | 42.74698 | 18.50010 | 37179 ft | 484 kts | 163° |
| 2026-04-30 18:47 | 42.68391 | 18.53308 | 37168 ft | 486 kts | 163° |
| 2026-04-30 18:47 | 42.62107 | 18.56588 | 37169 ft | 487 kts | 163° |
| 2026-04-30 18:48 | 42.55776 | 18.59885 | 37157 ft | 488 kts | 163° |
| 2026-04-30 18:48 | 42.49433 | 18.63182 | 37159 ft | 489 kts | 163° |
| 2026-04-30 18:49 | 42.43079 | 18.66476 | 37143 ft | 489 kts | 163° |
| 2026-04-30 18:49 | 42.36716 | 18.69770 | 37151 ft | 489 kts | 163° |
| 2026-04-30 18:50 | 42.30361 | 18.73017 | 37156 ft | 487 kts | 165° |
| 2026-04-30 18:50 | 42.23944 | 18.75892 | 37153 ft | 484 kts | 167° |
| 2026-04-30 18:51 | 42.17531 | 18.78643 | 37153 ft | 483 kts | 167° |
| 2026-04-30 18:51 | 42.11184 | 18.81406 | 37149 ft | 482 kts | 167° |
| 2026-04-30 18:52 | 42.04815 | 18.84212 | 37154 ft | 481 kts | 167° |
| 2026-04-30 18:52 | 41.98451 | 18.87020 | 37157 ft | 481 kts | 167° |
| 2026-04-30 18:53 | 41.92069 | 18.89827 | 37162 ft | 484 kts | 167° |
| 2026-04-30 18:53 | 41.85644 | 18.92645 | 37154 ft | 485 kts | 167° |
| 2026-04-30 18:54 | 41.79261 | 18.95443 | 37140 ft | 483 kts | 167° |
| 2026-04-30 18:54 | 41.72885 | 18.98230 | 37144 ft | 480 kts | 168° |
| 2026-04-30 18:55 | 41.66545 | 19.00994 | 37142 ft | 478 kts | 168° |
| 2026-04-30 18:55 | 41.57081 | 19.05109 | 37137 ft | 478 kts | 168° |
| 2026-04-30 18:56 | 41.47502 | 19.09260 | 37133 ft | 485 kts | 168° |
| 2026-04-30 18:57 | 41.37935 | 19.13735 | 37109 ft | 484 kts | 165° |
| 2026-04-30 18:57 | 41.31680 | 19.16863 | 37109 ft | 482 kts | 166° |
| 2026-04-30 18:58 | 41.22212 | 19.21516 | 36874 ft | 488 kts | 166° |
| 2026-04-30 18:58 | 41.19012 | 19.23067 | 36325 ft | 491 kts | 166° |
| 2026-04-30 18:59 | 41.12608 | 19.26175 | 35092 ft | 490 kts | 167° |
| 2026-04-30 19:00 | 41.02936 | 19.30854 | 32920 ft | 495 kts | 167° |
| 2026-04-30 19:00 | 40.99697 | 19.32419 | 32208 ft | 495 kts | 167° |
| 2026-04-30 19:00 | 40.93255 | 19.35528 | 30759 ft | 496 kts | 167° |
| 2026-04-30 19:01 | 40.86747 | 19.38660 | 29140 ft | 497 kts | 167° |
| 2026-04-30 19:01 | 40.83533 | 19.40209 | 28624 ft | 489 kts | 167° |
| 2026-04-30 19:02 | 40.77196 | 19.43257 | 27460 ft | 478 kts | 167° |
| 2026-04-30 19:02 | 40.71001 | 19.46223 | 26354 ft | 468 kts | 167° |
| 2026-04-30 19:03 | 40.64932 | 19.49121 | 25282 ft | 460 kts | 167° |
| 2026-04-30 19:03 | 40.58968 | 19.51965 | 24216 ft | 451 kts | 167° |
| 2026-04-30 19:04 | 40.53093 | 19.54700 | 22943 ft | 442 kts | 171° |
| 2026-04-30 19:04 | 40.47241 | 19.56479 | 21728 ft | 426 kts | 174° |
| 2026-04-30 19:05 | 40.41493 | 19.58081 | 20659 ft | 418 kts | 174° |
| 2026-04-30 19:05 | 40.35897 | 19.59681 | 19656 ft | 411 kts | 173° |
| 2026-04-30 19:06 | 40.30343 | 19.61298 | 18656 ft | 406 kts | 173° |
| 2026-04-30 19:06 | 40.27592 | 19.62102 | 18108 ft | 404 kts | 173° |
| 2026-04-30 19:06 | 40.22152 | 19.63698 | 17044 ft | 397 kts | 172° |
| 2026-04-30 19:07 | 40.16812 | 19.65263 | 16083 ft | 389 kts | 172° |
| 2026-04-30 19:07 | 40.14175 | 19.66034 | 15598 ft | 387 kts | 172° |
| 2026-04-30 19:08 | 40.08979 | 19.67552 | 14644 ft | 382 kts | 172° |
| 2026-04-30 19:08 | 40.03822 | 19.69055 | 13683 ft | 377 kts | 171° |
| 2026-04-30 19:08 | 40.01267 | 19.69799 | 13169 ft | 374 kts | 171° |
| 2026-04-30 19:09 | 39.98742 | 19.70534 | 12674 ft | 372 kts | 171° |
| 2026-04-30 19:09 | 39.98127 | 19.70714 | 12558 ft | 371 kts | 171° |
| 2026-04-30 19:09 | 39.95722 | 19.71413 | 12097 ft | 368 kts | 171° |
| 2026-04-30 19:10 | 39.90758 | 19.72855 | 11186 ft | 363 kts | 171° |
| 2026-04-30 19:10 | 39.85851 | 19.74278 | 10269 ft | 359 kts | 170° |
| 2026-04-30 19:11 | 39.83447 | 19.74974 | 9815 ft | 358 kts | 170° |
| 2026-04-30 19:11 | 39.78600 | 19.76376 | 8843 ft | 354 kts | 169° |
| 2026-04-30 19:11 | 39.76207 | 19.77068 | 8393 ft | 352 kts | 169° |
| 2026-04-30 19:12 | 39.73819 | 19.77758 | 7953 ft | 349 kts | 168° |
| 2026-04-30 19:12 | 39.71447 | 19.78443 | 7492 ft | 348 kts | 168° |
| 2026-04-30 19:12 | 39.69095 | 19.79120 | 7036 ft | 345 kts | 168° |
| 2026-04-30 19:13 | 39.64434 | 19.80464 | 6150 ft | 341 kts | 168° |
| 2026-04-30 19:13 | 39.59890 | 19.81774 | 5521 ft | 329 kts | 167° |
| 2026-04-30 19:13 | 39.57690 | 19.82407 | 5357 ft | 319 kts | 167° |
| 2026-04-30 19:14 | 39.55556 | 19.83020 | 5204 ft | 309 kts | 167° |
| 2026-04-30 19:14 | 39.53486 | 19.83615 | 5079 ft | 300 kts | 167° |
| 2026-04-30 19:14 | 39.51485 | 19.84190 | 4975 ft | 290 kts | 167° |
| 2026-04-30 19:14 | 39.49548 | 19.84746 | 4894 ft | 280 kts | 167° |
| 2026-04-30 19:15 | 39.47669 | 19.85285 | 4824 ft | 271 kts | 167° |
| 2026-04-30 19:15 | 39.44097 | 19.86308 | 4575 ft | 256 kts | 167° |
| 2026-04-30 19:15 | 39.42437 | 19.87029 | 4434 ft | 248 kts | 146° |
| 2026-04-30 19:16 | 39.41288 | 19.88594 | 4253 ft | 239 kts | 114° |
| 2026-04-30 19:16 | 39.40853 | 19.90622 | 4006 ft | 232 kts | 89° |
| 2026-04-30 19:16 | 39.41464 | 19.94585 | 3506 ft | 225 kts | 66° |
| 2026-04-30 19:17 | 39.42373 | 19.96124 | 3284 ft | 211 kts | 25° |
| 2026-04-30 19:17 | 39.45125 | 19.96469 | 2885 ft | 197 kts | 352° |
| 2026-04-30 19:17 | 39.46469 | 19.96174 | 2620 ft | 194 kts | 346° |
| 2026-04-30 19:18 | 39.48566 | 19.95467 | 2192 ft | 178 kts | 343° |
| 2026-04-30 19:18 | 39.50075 | 19.94908 | 1921 ft | 159 kts | 342° |
| 2026-04-30 19:18 | 39.51077 | 19.94533 | 1701 ft | 146 kts | 343° |
| 2026-04-30 19:19 | 39.52044 | 19.94170 | 1501 ft | 144 kts | 343° |
| 2026-04-30 19:19 | 39.53023 | 19.93810 | 1335 ft | 148 kts | 344° |
| 2026-04-30 19:19 | 39.55005 | 19.92954 | 939 ft | 153 kts | 335° |
| 2026-04-30 19:20 | 39.55955 | 19.92446 | 768 ft | 143 kts | 339° |
| 2026-04-30 19:20 | 39.56911 | 19.92056 | 554 ft | 145 kts | 347° |
| 2026-04-30 19:20 | 39.58931 | 19.91535 | 119 ft | 150 kts | 349° |
| 2026-04-30 19:21 | 39.59932 | 19.91280 | 23 ft | 133 kts | 349° |
| 2026-04-30 19:21 | 39.60583 | 19.91200 | 20 ft | 8 kts | 42° |
| 2026-04-30 19:22 | 39.60569 | 19.91312 | 19 ft | 7 kts | 137° |
| 2026-04-30 19:22 | 39.60554 | 19.91397 | 18 ft | 1 kts | 79° |
| 2026-04-30 19:23 | 39.60554 | 19.91399 | 18 ft | 0 kts | 79° |